createdAt,value
2018-03-27T00:01:02.849Z,81.10
2018-03-27T00:03:28.798Z,81.10
2018-03-27T00:05:54.783Z,80.90
2018-03-27T00:08:20.719Z,80.70
2018-03-27T00:10:46.717Z,80.40
2018-03-27T00:13:12.670Z,80.10
2018-03-27T00:15:38.912Z,80.10
2018-03-27T00:18:04.858Z,80.60
2018-03-27T00:20:31.604Z,80.80
2018-03-27T00:22:57.536Z,80.80
2018-03-27T00:25:23.468Z,81.00
2018-03-27T00:27:49.472Z,80.90
2018-03-27T00:30:16.168Z,80.60
2018-03-27T00:32:42.131Z,80.60
2018-03-27T00:35:08.847Z,82.00
2018-03-27T00:37:34.837Z,81.90
2018-03-27T00:40:00.796Z,82.20
2018-03-27T00:42:26.889Z,82.30
2018-03-27T00:44:52.845Z,82.70
2018-03-27T00:47:18.848Z,83.00
2018-03-27T00:49:44.805Z,83.40
2018-03-27T00:52:11.488Z,83.20
2018-03-27T00:54:37.476Z,83.20
2018-03-27T00:57:03.409Z,83.00
2018-03-27T00:59:29.496Z,82.90
2018-03-27T01:01:55.456Z,83.00
2018-03-27T01:04:21.429Z,83.10
2018-03-27T01:06:47.373Z,83.00
2018-03-27T01:09:14.085Z,82.80
2018-03-27T01:11:40.021Z,82.70
2018-03-27T01:14:06.119Z,83.10
2018-03-27T01:16:32.224Z,84.40
2018-03-27T01:18:58.241Z,84.50
2018-03-27T01:21:24.224Z,84.20
2018-03-27T01:23:50.156Z,84.50
2018-03-27T01:26:16.869Z,84.60
2018-03-27T01:28:42.819Z,84.60
2018-03-27T01:31:09.657Z,84.20
2018-03-27T01:33:36.341Z,84.40
2018-03-27T01:36:02.318Z,84.40
2018-03-27T01:38:29.009Z,83.90
2018-03-27T01:40:54.990Z,83.90
2018-03-27T01:43:20.996Z,83.70
2018-03-27T01:45:47.824Z,83.70
2018-03-27T01:48:13.832Z,83.70
2018-03-27T01:50:39.776Z,83.50
2018-03-27T01:53:05.765Z,83.50
2018-03-27T01:55:31.720Z,83.30
2018-03-27T01:57:57.704Z,82.90
2018-03-27T02:00:23.641Z,82.90
2018-03-27T02:02:49.582Z,82.80
2018-03-27T02:05:15.553Z,82.70
2018-03-27T02:07:41.508Z,82.70
2018-03-27T02:10:07.596Z,83.00
2018-03-27T02:12:33.529Z,83.60
2018-03-27T02:14:59.479Z,83.30
2018-03-27T02:17:25.569Z,83.30
2018-03-27T02:19:51.552Z,83.20
2018-03-27T02:22:18.266Z,83.40
2018-03-27T02:24:44.216Z,83.40
2018-03-27T02:27:10.969Z,83.50
2018-03-27T02:29:36.912Z,83.50
2018-03-27T02:32:03.029Z,83.50
2018-03-27T02:34:29.073Z,83.10
2018-03-27T02:36:55.081Z,82.80
2018-03-27T02:39:21.011Z,82.80
2018-03-27T02:41:46.964Z,82.70
2018-03-27T02:44:12.953Z,82.70
2018-03-27T02:46:38.898Z,82.40
2018-03-27T02:49:04.981Z,83.00
2018-03-27T02:51:30.926Z,83.30
2018-03-27T02:53:56.899Z,82.90
2018-03-27T02:56:22.832Z,83.10
2018-03-27T02:58:49.598Z,82.80
2018-03-27T03:01:15.562Z,82.70
2018-03-27T03:03:41.545Z,82.30
2018-03-27T03:06:07.521Z,81.70
2018-03-27T03:08:33.449Z,81.50
2018-03-27T03:10:59.519Z,81.20
2018-03-27T03:13:25.476Z,81.10
2018-03-27T03:15:51.597Z,80.70
2018-03-27T03:18:17.539Z,80.20
2018-03-27T03:20:43.516Z,80.20
2018-03-27T03:23:09.480Z,79.90
2018-03-27T03:25:35.485Z,79.50
2018-03-27T03:28:01.461Z,79.60
2018-03-27T03:30:27.409Z,80.70
2018-03-27T03:32:53.498Z,81.30
2018-03-27T03:35:20.191Z,81.20
2018-03-27T03:37:46.172Z,81.20
2018-03-27T03:40:12.164Z,81.20
2018-03-27T03:42:38.272Z,81.40
2018-03-27T03:45:04.244Z,81.20
2018-03-27T03:47:30.181Z,80.90
2018-03-27T03:49:56.305Z,81.20
2018-03-27T03:52:22.260Z,82.10
2018-03-27T03:54:48.232Z,81.90
2018-03-27T03:57:14.187Z,82.00
2018-03-27T03:59:40.136Z,81.80
2018-03-27T04:02:06.229Z,82.10
2018-03-27T04:04:32.157Z,82.00
2018-03-27T04:06:58.145Z,83.40
2018-03-27T04:09:24.101Z,83.60
2018-03-27T04:11:50.087Z,85.10
2018-03-27T04:14:16.175Z,86.30
2018-03-27T04:16:42.165Z,86.70
2018-03-27T04:19:08.093Z,87.10
2018-03-27T04:21:34.116Z,86.80
2018-03-27T04:24:00.048Z,86.40
2018-03-27T04:26:26.024Z,86.50
2018-03-27T04:28:51.992Z,87.10
2018-03-27T04:31:17.950Z,86.50
2018-03-27T04:33:43.917Z,85.60
2018-03-27T04:36:09.865Z,85.40
2018-03-27T04:38:35.863Z,84.70
2018-03-27T04:41:01.813Z,84.00
2018-03-27T04:43:27.760Z,83.00
2018-03-27T04:45:54.483Z,82.50
2018-03-27T04:48:20.448Z,82.50
2018-03-27T04:50:46.381Z,83.30
2018-03-27T04:53:12.368Z,82.80
2018-03-27T04:55:39.069Z,82.30
2018-03-27T04:58:05.153Z,82.30
2018-03-27T05:00:31.081Z,82.30
2018-03-27T05:02:57.062Z,82.10
2018-03-27T05:05:23.748Z,81.90
2018-03-27T05:07:49.742Z,81.80
2018-03-27T05:10:15.676Z,81.60
2018-03-27T05:12:41.748Z,82.40
2018-03-27T05:15:08.009Z,82.30
2018-03-27T05:17:34.713Z,82.00
2018-03-27T05:20:00.731Z,82.00
2018-03-27T05:22:26.664Z,82.00
2018-03-27T05:24:52.628Z,82.00
2018-03-27T05:27:18.568Z,81.80
2018-03-27T05:29:44.554Z,81.30
2018-03-27T05:32:10.496Z,81.10
2018-03-27T05:34:43.978Z,81.60
2018-03-27T05:37:10.714Z,82.00
2018-03-27T05:39:37.430Z,81.60
2018-03-27T05:42:03.368Z,81.60
2018-03-27T05:44:30.092Z,82.00
2018-03-27T05:51:59.664Z,81.20
2018-03-27T05:54:25.595Z,81.10
2018-03-27T05:56:51.572Z,81.00
2018-03-27T05:59:17.516Z,81.10
2018-03-27T06:01:44.405Z,81.10
2018-03-27T06:04:10.363Z,81.10
2018-03-27T06:06:36.420Z,81.10
2018-03-27T06:09:02.373Z,81.00
2018-03-27T06:11:28.348Z,81.20
2018-03-27T06:13:55.033Z,81.80
2018-03-27T06:16:21.056Z,81.80
2018-03-27T06:18:47.040Z,81.40
2018-03-27T06:21:13.731Z,81.30
2018-03-27T06:23:39.907Z,81.30
2018-03-27T06:26:05.866Z,81.50
2018-03-27T06:28:31.826Z,81.30
2018-03-27T06:30:57.840Z,81.10
2018-03-27T06:33:23.981Z,82.10
2018-03-27T06:35:49.922Z,81.00
2018-03-27T06:38:16.719Z,80.90
2018-03-27T06:40:42.656Z,80.80
2018-03-27T06:43:08.636Z,80.80
2018-03-27T06:45:34.585Z,80.90
2018-03-27T06:48:00.532Z,81.10
2018-03-27T06:50:26.528Z,81.00
2018-03-27T06:52:52.564Z,81.30
2018-03-27T06:55:18.483Z,82.60
2018-03-27T06:57:44.580Z,83.10
2018-03-27T07:00:10.532Z,83.40
2018-03-27T07:02:36.506Z,85.00
2018-03-27T07:05:02.439Z,85.90
2018-03-27T07:07:28.408Z,85.80
2018-03-27T07:09:54.358Z,85.70
2018-03-27T07:12:21.167Z,84.50
2018-03-27T07:14:47.271Z,84.50
2018-03-27T07:17:13.368Z,83.20
2018-03-27T07:19:39.310Z,83.00
2018-03-27T07:22:05.267Z,83.30
2018-03-27T07:24:31.228Z,83.10
2018-03-27T07:26:57.232Z,82.90
2018-03-27T07:29:23.288Z,81.40
2018-03-27T07:31:49.229Z,80.90
2018-03-27T07:34:15.198Z,79.20
2018-03-27T07:36:41.872Z,79.90
2018-03-27T07:39:07.845Z,79.90
2018-03-27T07:41:33.784Z,80.20
2018-03-27T07:43:59.753Z,78.90
2018-03-27T07:46:25.835Z,78.20
2018-03-27T07:48:51.792Z,78.40
2018-03-27T07:51:17.797Z,77.70
2018-03-27T07:53:43.752Z,76.80
2018-03-27T07:56:09.732Z,76.80
2018-03-27T07:58:35.674Z,77.50
2018-03-27T08:01:02.375Z,78.10
2018-03-27T08:03:29.198Z,79.00
2018-03-27T08:05:55.192Z,79.10
2018-03-27T08:08:21.144Z,79.50
2018-03-27T08:10:47.091Z,80.20
2018-03-27T08:13:13.069Z,81.60
2018-03-27T08:15:39.158Z,79.90
2018-03-27T08:18:05.237Z,74.60
2018-03-27T08:20:31.203Z,75.10
2018-03-27T08:22:57.211Z,71.90
2018-03-27T08:25:23.169Z,71.00
2018-03-27T08:27:49.136Z,71.30
2018-03-27T08:30:15.852Z,71.60
2018-03-27T08:32:41.795Z,71.50
2018-03-27T08:35:08.661Z,72.60
2018-03-27T08:37:34.592Z,72.50
2018-03-27T08:40:00.562Z,70.20
2018-03-27T08:42:26.508Z,67.00
2018-03-27T08:44:53.225Z,64.20
2018-03-27T08:47:19.169Z,64.00
2018-03-27T08:49:45.996Z,64.40
2018-03-27T08:52:11.937Z,64.50
2018-03-27T08:54:38.683Z,63.80
2018-03-27T08:57:05.369Z,65.30
2018-03-27T08:59:31.336Z,65.30
2018-03-27T09:01:58.046Z,60.90
2018-03-27T09:04:23.984Z,60.80
2018-03-27T09:06:50.068Z,59.90
2018-03-27T09:09:16.016Z,59.70
2018-03-27T09:11:42.017Z,59.20
2018-03-27T09:14:08.107Z,61.00
2018-03-27T09:16:34.085Z,61.00
2018-03-27T09:19:00.075Z,61.50
2018-03-27T09:21:26.152Z,62.50
2018-03-27T09:23:52.825Z,59.80
2018-03-27T09:26:18.825Z,60.50
2018-03-27T09:28:45.516Z,58.90
2018-03-27T09:31:11.488Z,58.90
2018-03-27T09:33:37.454Z,56.60
2018-03-27T09:36:03.409Z,59.40
2018-03-27T09:38:41.459Z,58.50
2018-03-27T09:41:42.984Z,58.60
2018-03-27T09:44:09.900Z,58.50
2018-03-27T09:46:35.867Z,57.60
2018-03-27T09:49:01.851Z,56.90
2018-03-27T09:51:27.821Z,56.40
2018-03-27T09:53:53.802Z,57.30
2018-03-27T09:56:19.764Z,56.10
2018-03-27T09:58:45.890Z,55.20
2018-03-27T10:01:11.835Z,54.60
2018-03-27T10:03:37.779Z,52.10
2018-03-27T10:06:03.743Z,52.40
2018-03-27T10:08:29.687Z,52.00
2018-03-27T10:10:55.680Z,51.70
2018-03-27T10:13:22.362Z,51.80
2018-03-27T10:15:48.624Z,51.70
2018-03-27T10:18:14.580Z,50.40
2018-03-27T10:20:40.527Z,48.90
2018-03-27T10:23:06.492Z,50.60
2018-03-27T10:25:33.199Z,45.90
2018-03-27T10:27:59.179Z,45.90
2018-03-27T10:30:25.124Z,46.60
2018-03-27T10:32:51.204Z,48.40
2018-03-27T10:35:17.137Z,45.10
2018-03-27T10:37:43.853Z,47.20
2018-03-27T10:40:09.796Z,46.60
2018-03-27T10:42:36.548Z,47.80
2018-03-27T10:45:02.472Z,47.70
2018-03-27T10:47:29.185Z,48.40
2018-03-27T10:49:55.142Z,48.30
2018-03-27T10:52:21.123Z,48.20
2018-03-27T10:54:47.084Z,47.90
2018-03-27T10:57:13.208Z,49.10
2018-03-27T10:59:39.161Z,51.70
2018-03-27T11:02:05.108Z,53.50
2018-03-27T11:04:31.068Z,52.00
2018-03-27T11:06:57.033Z,51.60
2018-03-27T11:09:23.020Z,52.70
2018-03-27T11:11:48.974Z,52.40
2018-03-27T11:14:15.065Z,53.80
2018-03-27T11:16:41.148Z,53.50
2018-03-27T11:19:07.101Z,53.70
2018-03-27T11:21:33.109Z,52.50
2018-03-27T11:23:59.779Z,50.40
2018-03-27T11:26:25.747Z,50.30
2018-03-27T11:28:51.712Z,50.40
2018-03-27T11:31:17.679Z,51.10
2018-03-27T11:33:43.636Z,51.30
2018-03-27T11:36:10.332Z,50.30
2018-03-27T11:38:37.217Z,50.80
2018-03-27T11:41:03.902Z,52.40
2018-03-27T11:43:29.870Z,52.40
2018-03-27T11:45:55.816Z,50.70
2018-03-27T11:48:21.778Z,52.60
2018-03-27T11:50:47.865Z,51.70
2018-03-27T11:53:13.811Z,50.90
2018-03-27T11:55:39.817Z,50.40
2018-03-27T11:58:05.815Z,51.50
2018-03-27T12:00:31.762Z,51.20
2018-03-27T12:02:57.907Z,51.30
2018-03-27T12:05:23.894Z,51.20
2018-03-27T12:07:50.618Z,52.00
2018-03-27T12:10:17.317Z,52.40
2018-03-27T12:12:43.252Z,52.40
2018-03-27T12:15:09.508Z,53.20
2018-03-27T12:17:35.456Z,53.00
2018-03-27T12:20:01.412Z,57.50
2018-03-27T12:22:27.409Z,59.60
2018-03-27T12:24:53.408Z,60.80
2018-03-27T12:27:19.397Z,65.70
2018-03-27T12:29:45.948Z,66.90
2018-03-27T12:32:11.920Z,66.90
2018-03-27T12:34:37.859Z,66.40
2018-03-27T12:37:03.905Z,69.20
2018-03-27T12:39:29.876Z,66.10
2018-03-27T12:41:55.920Z,64.50
2018-03-27T12:44:21.867Z,64.70
2018-03-27T12:46:47.878Z,64.00
2018-03-27T12:49:13.846Z,63.70
2018-03-27T12:51:40.724Z,61.00
2018-03-27T12:54:06.680Z,61.00
2018-03-27T12:56:32.703Z,61.30
2018-03-27T12:58:58.814Z,59.80
2018-03-27T13:01:24.768Z,59.50
2018-03-27T13:03:50.756Z,59.90
2018-03-27T13:06:16.740Z,58.50
2018-03-27T13:08:42.736Z,59.70
2018-03-27T13:11:08.735Z,58.00
2018-03-27T13:13:34.910Z,56.30
2018-03-27T13:16:01.136Z,55.40
2018-03-27T13:18:27.131Z,59.30
2018-03-27T13:20:53.078Z,58.20
2018-03-27T13:23:19.850Z,55.20
2018-03-27T13:25:45.833Z,55.10
2018-03-27T13:28:12.532Z,53.40
2018-03-27T13:30:38.652Z,53.20
2018-03-27T13:33:04.617Z,44.60
2018-03-27T13:35:31.357Z,42.80
2018-03-27T13:37:58.060Z,42.00
2018-03-27T13:40:24.053Z,41.90
2018-03-27T13:42:50.020Z,43.80
2018-03-27T13:45:16.121Z,41.60
2018-03-27T13:47:42.101Z,42.10
2018-03-27T13:50:08.050Z,43.40
2018-03-27T13:52:34.042Z,42.00
2018-03-27T13:55:00.764Z,39.30
2018-03-27T13:57:26.807Z,39.30
2018-03-27T13:59:52.789Z,38.10
2018-03-27T14:02:18.797Z,38.90
2018-03-27T14:04:44.786Z,37.60
2018-03-27T14:07:10.736Z,39.50
2018-03-27T14:09:36.770Z,40.60
2018-03-27T14:12:02.680Z,38.70
2018-03-27T14:14:28.920Z,37.80
2018-03-27T14:16:54.856Z,37.80
2018-03-27T14:19:20.837Z,36.70
2018-03-27T14:21:46.810Z,36.00
2018-03-27T14:24:13.553Z,35.50
2018-03-27T14:26:39.514Z,35.50
2018-03-27T14:29:05.473Z,36.60
2018-03-27T14:31:31.565Z,35.90
2018-03-27T14:33:57.516Z,36.40
2018-03-27T14:36:23.527Z,37.40
2018-03-27T14:38:49.486Z,38.20
2018-03-27T14:41:15.494Z,36.20
2018-03-27T14:43:41.433Z,37.10
2018-03-27T14:46:07.380Z,37.30
2018-03-27T14:48:34.100Z,36.80
2018-03-27T14:51:00.041Z,36.70
2018-03-27T14:53:26.876Z,36.70
2018-03-27T14:55:53.569Z,37.90
2018-03-27T14:58:19.548Z,37.80
2018-03-27T15:00:45.505Z,36.20
2018-03-27T15:03:11.612Z,35.90
2018-03-27T15:05:37.569Z,36.60
2018-03-27T15:08:03.536Z,36.00
2018-03-27T15:10:29.499Z,37.90
2018-03-27T15:12:55.464Z,37.40
2018-03-27T15:15:22.336Z,36.50
2018-03-27T15:17:48.286Z,36.50
2018-03-27T15:20:14.249Z,36.70
2018-03-27T15:22:41.465Z,36.20
2018-03-27T15:25:07.424Z,36.70
2018-03-27T15:27:33.556Z,38.00
2018-03-27T15:30:00.250Z,38.00
2018-03-27T15:32:26.272Z,38.00
2018-03-27T15:34:52.216Z,38.70
2018-03-27T15:37:18.204Z,39.00
2018-03-27T15:39:44.180Z,39.60
2018-03-27T15:42:10.317Z,38.00
2018-03-27T15:44:37.021Z,38.80
2018-03-27T15:47:03.018Z,38.80
2018-03-27T15:49:28.999Z,39.20
2018-03-27T15:51:54.961Z,39.40
2018-03-27T15:54:21.062Z,38.20
2018-03-27T15:56:47.032Z,37.50
2018-03-27T15:59:13.035Z,38.60
2018-03-27T16:01:38.990Z,39.60
2018-03-27T16:04:04.988Z,40.00
2018-03-27T16:06:30.942Z,38.40
2018-03-27T16:08:57.662Z,38.80
2018-03-27T16:11:23.637Z,38.70
2018-03-27T16:13:49.641Z,39.70
2018-03-27T16:16:15.777Z,39.20
2018-03-27T16:18:41.905Z,39.30
2018-03-27T16:21:07.840Z,38.70
2018-03-27T16:23:33.788Z,39.60
2018-03-27T16:26:07.548Z,39.20
2018-03-27T16:28:40.752Z,39.30
2018-03-27T16:31:06.752Z,39.70
2018-03-27T16:33:33.432Z,40.60
2018-03-27T16:35:59.387Z,40.50
2018-03-27T16:38:25.373Z,41.00
2018-03-27T16:40:51.359Z,40.40
2018-03-27T16:43:18.244Z,40.50
2018-03-27T16:45:44.238Z,40.40
2018-03-27T16:48:10.252Z,41.10
2018-03-27T16:50:37.028Z,40.80
2018-03-27T16:53:03.037Z,40.80
2018-03-27T16:55:28.996Z,40.40
2018-03-27T16:57:54.945Z,41.00
2018-03-27T17:00:20.933Z,41.40
2018-03-27T17:02:46.895Z,42.10
2018-03-27T17:05:12.902Z,42.10
2018-03-27T17:07:38.861Z,41.90
2018-03-27T17:10:04.838Z,41.70
2018-03-27T17:12:30.819Z,41.80
2018-03-27T17:14:56.861Z,42.60
2018-03-27T17:17:22.826Z,41.80
2018-03-27T17:19:48.876Z,42.30
2018-03-27T17:22:14.835Z,42.40
2018-03-27T17:24:40.858Z,42.90
2018-03-27T17:27:06.923Z,43.40
2018-03-27T17:29:33.619Z,43.20
2018-03-27T17:31:59.581Z,43.20
2018-03-27T17:34:26.310Z,43.50
2018-03-27T17:36:52.336Z,43.60
2018-03-27T17:39:18.287Z,43.70
2018-03-27T17:41:44.290Z,43.40
2018-03-27T17:44:10.284Z,43.60
2018-03-27T17:46:36.417Z,43.80
2018-03-27T17:49:02.443Z,44.50
2018-03-27T17:51:28.589Z,45.20
2018-03-27T17:53:55.332Z,46.20
2018-03-27T17:56:22.035Z,46.80
2018-03-27T17:58:48.056Z,46.70
2018-03-27T18:01:14.070Z,47.20
2018-03-27T18:03:40.097Z,47.50
2018-03-27T18:06:06.063Z,47.70
2018-03-27T18:08:32.908Z,49.60
2018-03-27T18:10:59.616Z,50.30
2018-03-27T18:13:25.601Z,50.20
2018-03-27T18:15:51.729Z,50.80
2018-03-27T18:18:17.740Z,52.10
2018-03-27T18:20:43.700Z,52.80
2018-03-27T18:23:09.724Z,53.60
2018-03-27T18:25:35.693Z,54.80
2018-03-27T18:28:01.677Z,56.80
2018-03-27T18:30:27.626Z,57.20
2018-03-27T18:32:54.402Z,58.60
2018-03-27T18:35:20.394Z,59.20
2018-03-27T18:37:47.096Z,58.90
2018-03-27T18:40:13.180Z,58.90
2018-03-27T18:42:39.126Z,59.40
2018-03-27T18:45:05.132Z,59.30
2018-03-27T18:47:31.083Z,59.70
2018-03-27T18:49:57.073Z,59.40
2018-03-27T18:52:23.040Z,59.70
2018-03-27T18:54:49.005Z,59.60
2018-03-27T18:57:15.157Z,59.80
2018-03-27T18:59:41.108Z,59.70
2018-03-27T19:02:07.086Z,60.50
2018-03-27T19:04:33.074Z,60.40
2018-03-27T19:06:59.068Z,60.50
2018-03-27T19:09:25.069Z,60.70
2018-03-27T19:11:51.033Z,60.10
2018-03-27T19:14:17.153Z,60.00
2018-03-27T19:16:43.255Z,59.70
2018-03-27T19:19:09.241Z,60.00
2018-03-27T19:21:35.204Z,59.60
2018-03-27T19:24:01.155Z,59.70
2018-03-27T19:26:27.163Z,59.50
2018-03-27T19:28:53.117Z,59.50
2018-03-27T19:31:19.960Z,60.10
2018-03-27T19:33:46.689Z,60.30
2018-03-27T19:36:13.380Z,60.60
2018-03-27T19:38:39.374Z,60.70
2018-03-27T19:41:05.338Z,61.00
2018-03-27T19:43:31.400Z,61.00
2018-03-27T19:45:58.161Z,61.40
2018-03-27T19:48:24.162Z,61.40
2018-03-27T19:50:50.863Z,61.20
2018-03-27T19:53:16.839Z,61.10
2018-03-27T19:55:42.801Z,62.20
2018-03-27T19:58:08.819Z,61.90
2018-03-27T20:00:34.778Z,62.00
2018-03-27T20:03:00.889Z,62.90
2018-03-27T20:05:26.861Z,63.90
2018-03-27T20:07:52.944Z,64.30
2018-03-27T20:10:18.940Z,64.10
2018-03-27T20:12:44.907Z,64.30
2018-03-27T20:15:11.805Z,64.00
2018-03-27T20:17:37.767Z,64.00
2018-03-27T20:20:04.648Z,64.20
2018-03-27T20:22:30.604Z,64.10
2018-03-27T20:24:56.561Z,64.20
2018-03-27T20:27:22.593Z,64.50
2018-03-27T20:29:48.546Z,64.40
2018-03-27T20:32:14.656Z,64.40
2018-03-27T20:34:40.613Z,64.70
2018-03-27T20:37:06.610Z,64.90
2018-03-27T20:39:32.597Z,65.10
2018-03-27T20:41:59.353Z,66.20
2018-03-27T20:44:25.358Z,66.20
2018-03-27T20:46:51.290Z,66.30
2018-03-27T20:49:18.033Z,68.30
2018-03-27T20:51:44.789Z,68.00
2018-03-27T20:54:10.779Z,68.00
2018-03-27T20:56:37.485Z,69.70
2018-03-27T20:59:03.492Z,68.80
2018-03-27T21:01:29.464Z,69.20
2018-03-27T21:03:55.476Z,69.10
2018-03-27T21:06:21.446Z,69.60
2018-03-27T21:08:47.436Z,70.50
2018-03-27T21:11:14.158Z,70.00
2018-03-27T21:13:40.114Z,70.00
2018-03-27T21:16:06.221Z,69.50
2018-03-27T21:18:32.962Z,70.00
2018-03-27T21:20:59.804Z,69.70
2018-03-27T21:23:26.501Z,69.90
2018-03-27T21:25:52.579Z,69.80
2018-03-27T21:28:19.280Z,70.70
2018-03-27T21:30:45.282Z,70.00
2018-03-27T21:33:11.234Z,69.70
2018-03-27T21:35:37.320Z,70.00
2018-03-27T21:38:03.281Z,71.30
2018-03-27T21:40:29.261Z,72.00
2018-03-27T21:42:55.224Z,71.40
2018-03-27T21:45:21.193Z,71.60
2018-03-27T21:47:47.178Z,72.20
2018-03-27T21:50:13.146Z,72.30
2018-03-27T21:52:39.269Z,73.10
2018-03-27T21:55:05.253Z,72.80
2018-03-27T21:57:31.216Z,72.90
2018-03-27T21:59:57.209Z,72.50
2018-03-27T22:02:23.221Z,72.80
2018-03-27T22:04:49.194Z,73.30
2018-03-27T22:07:15.153Z,73.60
2018-03-27T22:09:41.249Z,73.70
2018-03-27T22:12:07.229Z,74.00
2018-03-27T22:14:34.110Z,74.20
2018-03-27T22:17:00.073Z,74.30
2018-03-27T22:19:26.036Z,74.60
2018-03-27T22:21:52.022Z,74.70
2018-03-27T22:24:18.156Z,75.00
2018-03-27T22:26:44.880Z,75.60
2018-03-27T22:29:10.856Z,75.50
2018-03-27T22:31:36.829Z,76.60
2018-03-27T22:34:02.808Z,76.40
2018-03-27T22:36:28.773Z,76.60
2018-03-27T22:38:54.740Z,76.50
2018-03-27T22:41:20.825Z,77.50
2018-03-27T22:43:47.513Z,77.00
2018-03-27T22:46:13.470Z,77.00
2018-03-27T22:48:39.452Z,76.80
2018-03-27T22:51:05.452Z,76.80
2018-03-27T22:53:31.425Z,76.80
2018-03-27T22:55:57.368Z,76.80
2018-03-27T22:58:23.463Z,77.00
2018-03-27T23:00:49.431Z,76.70
2018-03-27T23:03:16.163Z,76.50
2018-03-27T23:05:42.868Z,76.60
2018-03-27T23:08:08.855Z,76.60
2018-03-27T23:10:34.797Z,76.60
2018-03-27T23:13:00.757Z,76.70
2018-03-27T23:15:27.013Z,76.80
2018-03-27T23:17:53.780Z,77.50
2018-03-27T23:20:19.738Z,77.60
2018-03-27T23:22:45.713Z,77.90
2018-03-27T23:25:11.656Z,78.20
2018-03-27T23:27:37.616Z,78.20
2018-03-27T23:30:04.344Z,78.50
2018-03-27T23:32:30.299Z,78.40
2018-03-27T23:34:57.137Z,78.40
2018-03-27T23:37:23.841Z,78.80
2018-03-27T23:39:49.826Z,78.70
2018-03-27T23:42:15.776Z,78.50
2018-03-27T23:44:41.762Z,78.60
2018-03-27T23:47:07.845Z,78.70
2018-03-27T23:49:33.788Z,79.00
2018-03-27T23:51:59.792Z,79.20
2018-03-27T23:54:25.786Z,79.40
2018-03-27T23:56:51.791Z,79.30
2018-03-27T23:59:17.761Z,80.00
